Time;durP1;ratioP1;P1;durP2;ratioP2;P2;SDS_P1;SDS_P2;PMS_P1;PMS_P2;Temp;Humidity;BMP_temperature;BMP_pressure;BME280_temperature;BME280_humidity;BME280_pressure;Samples;Min_cycle;Max_cycle;Signal;HPM_P1;HPM_P2
2022/12/30 00:01:21;;;;;;;11.82;3.45;;;5.40;99.90;;;;;;4989692;28;20062;-74
2022/12/30 00:03:47;;;;;;;8.48;4.50;;;5.40;99.90;;;;;;4990022;28;20045;-77
2022/12/30 00:06:15;;;;;;;3.92;3.45;;;5.30;99.90;;;;;;4990421;28;20035;-76
2022/12/30 00:08:46;;;;;;;11.48;2.70;;;5.40;99.90;;;;;;4985674;28;20031;-76
2022/12/30 00:11:20;;;;;;;7.13;3.00;;;5.40;99.90;;;;;;4971080;28;20031;-76
2022/12/30 00:34:13;;;;;;;16.58;2.65;;;5.20;99.90;;;;;;4989818;28;20030;-76
2022/12/30 00:36:39;;;;;;;14.10;5.82;;;5.20;99.90;;;;;;4988502;28;20476;-76
2022/12/30 00:39:05;;;;;;;12.45;3.88;;;5.20;99.90;;;;;;4989769;28;20062;-76
2022/12/30 00:44:15;;;;;;;10.68;2.95;;;5.20;99.90;;;;;;4989913;28;20381;-76
2022/12/30 00:46:43;;;;;;;6.35;3.03;;;5.20;99.90;;;;;;4989715;28;20026;-76
2022/12/30 00:57:22;;;;;;;23.98;2.90;;;5.30;99.90;;;;;;4989351;28;20110;-76
2022/12/30 00:59:49;;;;;;;7.10;2.30;;;5.30;99.90;;;;;;4988129;28;20125;-76
2022/12/30 01:02:15;;;;;;;13.50;3.50;;;5.20;99.90;;;;;;4988197;28;20523;-76
2022/12/30 01:04:41;;;;;;;12.25;3.47;;;5.20;99.90;;;;;;4983790;28;20035;-76
2022/12/30 01:07:06;;;;;;;7.22;3.05;;;5.20;99.90;;;;;;4989379;28;20031;-76
2022/12/30 01:09:36;;;;;;;10.43;4.00;;;5.20;99.90;;;;;;4989333;28;20038;-76
2022/12/30 01:12:09;;;;;;;8.25;3.50;;;5.20;99.90;;;;;;4987132;28;20102;-76
2022/12/30 01:14:39;;;;;;;8.05;3.33;;;5.20;99.90;;;;;;4989240;28;20030;-76
2022/12/30 01:17:06;;;;;;;4.78;2.03;;;5.10;99.90;;;;;;4989370;28;20027;-76
2022/12/30 01:19:33;;;;;;;5.35;3.47;;;5.10;99.90;;;;;;4987750;28;20041;-77
2022/12/30 01:21:59;;;;;;;4.45;3.72;;;5.00;99.90;;;;;;4989094;28;20034;-76
2022/12/30 01:24:24;;;;;;;6.55;3.13;;;5.00;99.90;;;;;;4988909;28;20091;-76
2022/12/30 01:26:51;;;;;;;11.30;3.58;;;5.00;99.90;;;;;;4971528;28;20034;-76
2022/12/30 01:29:29;;;;;;;9.80;3.10;;;5.00;99.90;;;;;;4987880;28;20468;-76
2022/12/30 01:31:58;;;;;;;10.63;2.47;;;5.00;99.90;;;;;;4988985;28;20041;-76
2022/12/30 01:34:25;;;;;;;10.38;4.53;;;4.90;99.90;;;;;;4987266;28;20022;-77
2022/12/30 01:36:51;;;;;;;6.57;4.28;;;4.80;99.90;;;;;;4988898;28;20026;-76
2022/12/30 01:39:18;;;;;;;6.60;4.32;;;4.80;99.90;;;;;;4987510;28;20034;-76
2022/12/30 01:41:44;;;;;;;12.85;5.03;;;4.80;99.90;;;;;;4988781;28;20031;-76
2022/12/30 01:44:47;;;;;;;18.33;4.55;;;4.90;99.90;;;;;;4988294;28;20030;-76
2022/12/30 01:47:53;;;;;;;3.97;2.80;;;4.80;99.90;;;;;;4988510;28;20046;-76
2022/12/30 01:50:21;;;;;;;7.18;2.95;;;4.90;99.90;;;;;;4987534;28;20081;-76
2022/12/30 01:52:50;;;;;;;3.67;3.17;;;4.90;99.90;;;;;;4988336;28;20085;-76
2022/12/30 01:55:40;;;;;;;7.07;3.15;;;4.80;99.90;;;;;;4987303;28;20282;-76
2022/12/30 01:58:14;;;;;;;8.57;2.47;;;4.90;99.90;;;;;;4987237;28;20054;-76
2022/12/30 02:00:41;;;;;;;10.38;3.15;;;4.90;99.90;;;;;;4987855;28;20047;-76
2022/12/30 02:03:07;;;;;;;4.85;2.95;;;4.90;99.90;;;;;;4987131;28;20103;-76
2022/12/30 02:05:37;;;;;;;3.00;2.80;;;4.90;99.90;;;;;;4972944;28;20090;-76
2022/12/30 02:08:13;;;;;;;10.35;4.03;;;4.70;99.90;;;;;;4967630;28;20031;-76
2022/12/30 02:10:44;;;;;;;14.32;4.47;;;4.80;99.90;;;;;;4968945;28;20031;-76
2022/12/30 02:13:12;;;;;;;4.68;1.98;;;4.70;99.90;;;;;;4967529;29;20065;-76
2022/12/30 02:16:10;;;;;;;3.60;3.22;;;4.70;99.90;;;;;;4968700;28;20597;-76
2022/12/30 02:18:54;;;;;;;16.63;4.45;;;4.70;99.90;;;;;;4968388;28;20106;-76
2022/12/30 02:21:23;;;;;;;4.28;2.75;;;4.70;99.90;;;;;;4974138;28;20027;-76
2022/12/30 02:24:12;;;;;;;4.30;3.42;;;4.70;99.90;;;;;;4987723;28;20035;-76
2022/12/30 02:27:03;;;;;;;11.88;4.47;;;4.70;99.90;;;;;;4987871;28;20035;-76
2022/12/30 02:30:13;;;;;;;13.30;5.22;;;4.70;99.90;;;;;;4988064;28;20089;-76
2022/12/30 02:32:39;;;;;;;11.45;5.38;;;4.70;99.90;;;;;;4967598;28;20038;-76
2022/12/30 02:35:10;;;;;;;13.40;4.20;;;4.70;99.90;;;;;;4969679;28;20109;-76
2022/12/30 02:37:51;;;;;;;20.58;5.15;;;4.70;99.90;;;;;;4986518;28;20042;-76
2022/12/30 02:44:36;;;;;;;10.38;5.53;;;4.60;99.90;;;;;;4987578;28;20361;-76
2022/12/30 02:46:08;;;;;;;11.38;3.05;;;4.70;99.90;;;;;;4987743;28;20031;-76
2022/12/30 02:48:38;;;;;;;6.80;3.72;;;4.80;99.90;;;;;;4986148;28;20023;-76
2022/12/30 02:53:50;;;;;;;11.70;4.72;;;4.70;99.90;;;;;;4987424;28;20518;-76
2022/12/30 02:56:15;;;;;;;6.68;3.50;;;4.80;99.90;;;;;;4987535;28;20050;-76
2022/12/30 02:58:49;;;;;;;7.45;3.20;;;4.80;99.90;;;;;;4987245;28;20038;-76
2022/12/30 03:04:29;;;;;;;12.10;4.47;;;4.80;99.90;;;;;;4985511;28;20117;-76
2022/12/30 03:07:14;;;;;;;3.72;2.33;;;4.80;99.90;;;;;;4987098;28;20054;-76
2022/12/30 03:09:43;;;;;;;8.52;3.13;;;4.70;99.90;;;;;;5002082;28;20102;-76
2022/12/30 03:12:33;;;;;;;5.63;2.10;;;4.70;99.90;;;;;;4987012;28;20499;-76
2022/12/30 03:15:05;;;;;;;7.15;3.42;;;4.80;99.90;;;;;;4987001;28;20114;-76
2022/12/30 03:17:37;;;;;;;15.18;4.43;;;4.90;99.90;;;;;;4985938;28;20050;-76
2022/12/30 03:20:09;;;;;;;20.20;3.63;;;4.80;99.90;;;;;;4986991;28;20041;-76
2022/12/30 03:28:29;;;;;;;16.52;4.40;;;4.80;99.90;;;;;;4965608;29;20058;-76
2022/12/30 03:31:00;;;;;;;11.85;5.03;;;4.80;99.90;;;;;;4965273;29;20067;-76
2022/12/30 03:33:28;;;;;;;6.53;3.72;;;4.90;99.90;;;;;;4965952;28;20050;-76
2022/12/30 03:36:02;;;;;;;9.98;3.42;;;4.80;99.90;;;;;;4986565;28;20034;-76
2022/12/30 03:38:34;;;;;;;7.75;4.22;;;4.80;99.90;;;;;;4987182;28;20035;-76
2022/12/30 03:41:03;;;;;;;6.07;3.15;;;4.90;99.90;;;;;;4985451;28;20038;-76
2022/12/30 03:43:30;;;;;;;10.07;3.58;;;5.00;99.90;;;;;;4986352;28;20030;-76
2022/12/30 03:45:56;;;;;;;11.07;3.88;;;4.90;99.90;;;;;;4986874;28;20058;-76
2022/12/30 03:48:22;;;;;;;9.68;4.35;;;4.90;99.90;;;;;;4986369;28;20038;-76
2022/12/30 03:50:48;;;;;;;13.85;5.00;;;4.90;99.90;;;;;;4985479;28;20039;-76
2022/12/30 03:53:14;;;;;;;8.95;3.25;;;4.80;99.90;;;;;;4985037;28;20035;-76
2022/12/30 03:55:40;;;;;;;17.45;3.70;;;4.90;99.90;;;;;;4986970;28;20035;-76
2022/12/30 03:58:06;;;;;;;11.75;3.85;;;5.00;99.90;;;;;;4985304;28;20031;-76
2022/12/30 04:00:32;;;;;;;15.05;4.20;;;4.90;99.90;;;;;;4986587;28;20090;-76
2022/12/30 04:02:58;;;;;;;13.32;4.82;;;5.00;99.90;;;;;;4985285;28;20031;-76
2022/12/30 04:05:24;;;;;;;7.60;3.83;;;5.00;99.90;;;;;;4974580;28;20032;-76
2022/12/30 04:07:50;;;;;;;26.60;5.38;;;5.00;99.90;;;;;;4967440;28;20055;-76
2022/12/30 04:10:16;;;;;;;8.93;3.63;;;5.00;99.90;;;;;;4967252;28;20031;-76
2022/12/30 04:12:41;;;;;;;5.38;3.17;;;5.00;99.90;;;;;;4996444;28;20057;-76
2022/12/30 04:15:07;;;;;;;6.97;2.72;;;5.10;99.90;;;;;;4985424;28;20039;-76
2022/12/30 04:17:33;;;;;;;17.05;5.25;;;5.10;99.90;;;;;;4986333;28;20102;-77
2022/12/30 04:20:00;;;;;;;12.65;3.00;;;5.10;99.90;;;;;;4985089;28;20026;-76
2022/12/30 04:22:25;;;;;;;8.95;2.65;;;5.00;99.90;;;;;;4986415;28;20034;-76
2022/12/30 04:24:51;;;;;;;7.75;3.40;;;5.10;99.90;;;;;;4986448;28;20023;-76
2022/12/30 04:27:17;;;;;;;10.90;3.92;;;5.10;99.90;;;;;;4984667;28;20568;-76
2022/12/30 04:29:43;;;;;;;7.78;4.25;;;5.00;99.90;;;;;;4986462;28;20062;-76
2022/12/30 04:32:09;;;;;;;12.82;3.70;;;5.10;99.90;;;;;;4986354;28;20034;-76
2022/12/30 04:34:35;;;;;;;11.63;4.50;;;5.00;99.90;;;;;;4985106;28;20099;-76
2022/12/30 04:37:01;;;;;;;18.45;4.80;;;5.00;99.90;;;;;;4985042;28;20039;-76
2022/12/30 04:39:27;;;;;;;12.80;4.55;;;5.00;99.90;;;;;;4986179;28;20039;-76
2022/12/30 04:41:53;;;;;;;10.50;4.72;;;4.90;99.90;;;;;;4986289;28;20026;-76
2022/12/30 04:44:19;;;;;;;10.07;3.38;;;4.90;99.90;;;;;;4985146;28;20031;-76
2022/12/30 04:46:45;;;;;;;7.72;4.35;;;4.90;99.90;;;;;;4986996;28;20042;-76
2022/12/30 04:49:11;;;;;;;7.65;3.38;;;5.00;99.90;;;;;;4989839;28;20050;-76
2022/12/30 04:51:36;;;;;;;6.72;2.80;;;5.00;99.90;;;;;;4988516;28;20455;-76
2022/12/30 04:54:02;;;;;;;10.27;3.85;;;4.90;99.90;;;;;;4972141;28;20054;-76
2022/12/30 04:56:28;;;;;;;18.75;3.70;;;5.00;99.90;;;;;;4989568;28;20031;-76
2022/12/30 04:58:54;;;;;;;14.48;3.83;;;4.90;99.90;;;;;;4989384;28;20054;-76
2022/12/30 05:01:21;;;;;;;13.77;4.63;;;4.90;99.90;;;;;;4989480;28;20038;-77
2022/12/30 05:03:46;;;;;;;4.80;3.58;;;4.90;99.90;;;;;;4988286;28;20103;-76
2022/12/30 05:06:12;;;;;;;15.82;3.88;;;4.90;99.90;;;;;;4981402;28;20122;-76
2022/12/30 05:08:38;;;;;;;8.43;3.33;;;4.90;99.90;;;;;;4989368;28;20042;-75
2022/12/30 05:11:04;;;;;;;12.45;3.95;;;4.90;99.90;;;;;;4989549;28;20030;-76
2022/12/30 05:13:30;;;;;;;10.20;3.88;;;4.90;99.90;;;;;;4987992;28;20049;-76
2022/12/30 05:15:56;;;;;;;7.55;3.30;;;5.00;99.90;;;;;;4988854;28;20030;-76
2022/12/30 05:18:22;;;;;;;17.85;5.07;;;4.90;99.90;;;;;;4988186;28;20035;-74
2022/12/30 05:20:49;;;;;;;12.55;4.53;;;5.00;99.90;;;;;;4989033;28;20097;-77
2022/12/30 05:26:14;;;;;;;6.43;4.25;;;4.90;99.90;;;;;;4987283;28;20031;-76
2022/12/30 05:28:41;;;;;;;10.15;3.45;;;4.90;99.90;;;;;;4985585;28;20027;-76
2022/12/30 05:31:06;;;;;;;13.63;3.70;;;4.90;99.90;;;;;;4989097;28;20480;-76
2022/12/30 05:33:32;;;;;;;16.80;4.72;;;4.90;99.90;;;;;;4987542;28;20042;-76
2022/12/30 05:35:58;;;;;;;11.55;5.55;;;4.90;99.90;;;;;;4988467;28;20459;-76
2022/12/30 05:38:24;;;;;;;11.35;4.45;;;4.80;99.90;;;;;;4989089;28;20038;-76
2022/12/30 05:40:51;;;;;;;8.48;3.90;;;4.80;99.90;;;;;;4986455;28;20038;-76
2022/12/30 05:43:17;;;;;;;7.82;3.38;;;4.80;99.90;;;;;;4988551;28;20029;-76
2022/12/30 05:45:42;;;;;;;5.30;3.33;;;4.80;99.90;;;;;;4978933;28;20082;-76
2022/12/30 05:48:08;;;;;;;15.68;4.50;;;4.70;99.90;;;;;;4984253;28;20103;-75
2022/12/30 05:50:34;;;;;;;11.02;3.30;;;4.60;99.90;;;;;;4988374;28;20026;-76
2022/12/30 05:53:00;;;;;;;2.90;2.50;;;4.60;99.90;;;;;;4971309;28;20027;-76
2022/12/30 05:55:26;;;;;;;15.95;5.15;;;4.60;99.90;;;;;;4970923;28;20030;-76
2022/12/30 05:57:52;;;;;;;15.07;6.15;;;4.60;99.90;;;;;;4970190;28;20034;-76
2022/12/30 06:00:19;;;;;;;17.42;5.40;;;4.60;99.90;;;;;;4951169;28;20047;-76
2022/12/30 06:02:44;;;;;;;11.63;4.82;;;4.60;99.90;;;;;;4983061;28;20026;-76
2022/12/30 06:05:10;;;;;;;6.72;3.35;;;4.60;99.90;;;;;;4988208;28;20025;-76
2022/12/30 06:07:36;;;;;;;16.55;5.15;;;4.60;99.90;;;;;;4954224;28;20591;-76
2022/12/30 06:10:02;;;;;;;12.63;6.00;;;4.60;99.90;;;;;;4969517;28;20050;-76
2022/12/30 06:12:28;;;;;;;11.25;4.50;;;4.60;99.90;;;;;;4988096;28;20090;-76
2022/12/30 06:14:54;;;;;;;14.05;4.45;;;4.60;99.90;;;;;;4984745;28;20027;-77
2022/12/30 06:17:20;;;;;;;7.93;4.60;;;4.70;99.90;;;;;;4975342;28;20118;-76
2022/12/30 06:19:46;;;;;;;7.15;4.28;;;4.70;99.90;;;;;;4957168;28;20031;-75
2022/12/30 06:22:12;;;;;;;13.35;5.47;;;4.70;99.90;;;;;;4992998;28;20031;-75
2022/12/30 06:24:38;;;;;;;6.90;3.22;;;4.70;99.90;;;;;;4986663;28;20511;-75
2022/12/30 06:27:04;;;;;;;7.72;3.58;;;4.80;99.90;;;;;;4987871;28;20090;-75
2022/12/30 06:29:29;;;;;;;11.32;4.63;;;4.80;99.90;;;;;;4986560;28;20478;-75
2022/12/30 06:31:56;;;;;;;7.57;4.93;;;4.80;99.90;;;;;;4970385;28;20534;-74
2022/12/30 06:34:22;;;;;;;8.88;4.50;;;4.70;99.90;;;;;;4987782;28;20031;-75
2022/12/30 06:36:47;;;;;;;5.95;4.10;;;4.80;99.90;;;;;;5002422;28;20027;-75
2022/12/30 06:39:14;;;;;;;7.00;3.90;;;4.80;99.90;;;;;;4973297;28;20029;-75
2022/12/30 06:41:40;;;;;;;3.38;2.03;;;4.80;99.90;;;;;;4987520;28;20042;-75
2022/12/30 06:44:05;;;;;;;10.13;5.90;;;4.80;99.90;;;;;;4987180;28;20396;-75
2022/12/30 06:46:31;;;;;;;6.30;4.25;;;4.90;99.90;;;;;;4987379;28;20035;-75
2022/12/30 06:48:57;;;;;;;7.28;3.72;;;4.90;99.90;;;;;;4987124;28;20073;-74
2022/12/30 06:51:23;;;;;;;4.57;3.40;;;4.90;99.90;;;;;;4987306;28;20110;-75
2022/12/30 06:53:48;;;;;;;14.32;4.93;;;5.00;99.90;;;;;;4985884;28;20046;-74
2022/12/30 06:56:14;;;;;;;7.15;5.28;;;5.00;99.90;;;;;;4987343;28;20031;-75
2022/12/30 06:58:40;;;;;;;6.45;5.68;;;4.90;99.90;;;;;;4985647;28;20099;-75
2022/12/30 07:01:06;;;;;;;5.95;4.00;;;4.90;99.90;;;;;;4987117;28;20033;-75
2022/12/30 07:03:32;;;;;;;14.60;6.22;;;5.10;99.90;;;;;;4986799;28;20049;-75
2022/12/30 07:05:58;;;;;;;3.47;3.05;;;5.10;99.90;;;;;;4986573;28;20483;-74
2022/12/30 07:08:24;;;;;;;9.23;3.50;;;5.10;99.90;;;;;;4987148;28;20038;-75
2022/12/30 07:10:50;;;;;;;8.05;4.18;;;5.20;99.90;;;;;;4985434;28;20091;-75
2022/12/30 07:13:16;;;;;;;10.27;4.78;;;5.40;99.90;;;;;;4984822;28;20503;-75
2022/12/30 07:15:42;;;;;;;4.28;3.28;;;5.40;99.90;;;;;;4986978;28;20057;-75
2022/12/30 07:18:08;;;;;;;6.25;5.30;;;5.50;99.90;;;;;;4986715;28;20031;-75
2022/12/30 07:20:35;;;;;;;9.85;3.38;;;5.50;99.90;;;;;;4986585;28;20041;-75
2022/12/30 07:23:00;;;;;;;4.28;3.33;;;5.60;99.90;;;;;;4986747;28;20019;-75
2022/12/30 07:25:26;;;;;;;6.28;3.00;;;5.60;99.90;;;;;;4986503;28;20023;-75
2022/12/30 07:28:00;;;;;;;10.98;3.38;;;5.60;99.90;;;;;;4986503;28;20023;-75
2022/12/30 07:30:27;;;;;;;6.55;3.83;;;5.70;99.90;;;;;;4985757;28;20042;-75
2022/12/30 07:32:52;;;;;;;7.78;2.92;;;5.70;99.90;;;;;;4995465;28;20048;-75
2022/12/30 07:35:18;;;;;;;4.03;2.50;;;5.80;99.90;;;;;;4989172;28;20062;-75
2022/12/30 07:37:44;;;;;;;5.88;3.50;;;5.90;99.90;;;;;;5006106;28;20034;-75
2022/12/30 07:40:11;;;;;;;6.82;3.78;;;5.90;99.90;;;;;;5006325;28;20057;-75
2022/12/30 07:42:37;;;;;;;6.65;3.13;;;6.00;99.90;;;;;;5004432;28;20026;-74
2022/12/30 07:45:03;;;;;;;11.43;4.57;;;6.10;99.90;;;;;;4987811;28;20062;-75
2022/12/30 07:47:33;;;;;;;9.55;2.70;;;6.10;99.90;;;;;;4987661;28;20089;-74
2022/12/30 07:49:59;;;;;;;;;;;6.10;99.90;;;;;;4988001;28;20037;-75
2022/12/30 07:52:26;;;;;;;10.07;2.58;;;6.10;99.90;;;;;;4987628;28;19914;-75
2022/12/30 07:54:52;;;;;;;5.78;3.22;;;6.20;99.90;;;;;;4985284;28;20039;-75
2022/12/30 07:57:18;;;;;;;5.20;3.17;;;6.30;99.90;;;;;;4981699;28;20027;-75
2022/12/30 07:59:45;;;;;;;7.97;3.47;;;6.30;99.90;;;;;;4982450;28;20051;-74
2022/12/30 08:02:11;;;;;;;2.28;2.08;;;6.30;99.90;;;;;;4986402;28;20098;-75
2022/12/30 08:04:37;;;;;;;5.38;3.75;;;6.30;99.90;;;;;;4985064;28;20027;-75
2022/12/30 08:07:03;;;;;;;4.95;2.92;;;6.30;99.90;;;;;;4985393;28;20031;-75
2022/12/30 08:09:29;;;;;;;4.15;2.92;;;6.50;99.90;;;;;;4983900;28;20118;-75
2022/12/30 08:11:55;;;;;;;2.85;2.65;;;6.50;99.90;;;;;;4977164;28;20038;-74
2022/12/30 08:14:21;;;;;;;6.88;2.63;;;6.60;99.90;;;;;;4985362;28;20023;-76
2022/12/30 08:16:46;;;;;;;5.75;2.60;;;6.70;99.90;;;;;;4985595;28;20022;-75
2022/12/30 08:19:12;;;;;;;4.38;2.63;;;6.70;99.90;;;;;;4973197;28;20039;-75
2022/12/30 08:21:38;;;;;;;3.95;3.05;;;6.70;99.90;;;;;;4987609;28;20039;-75
2022/12/30 08:24:04;;;;;;;4.32;2.70;;;6.70;99.90;;;;;;4988979;28;20030;-74
2022/12/30 08:26:30;;;;;;;5.38;2.55;;;6.80;99.90;;;;;;4988960;28;20427;-75
2022/12/30 08:28:56;;;;;;;3.55;2.95;;;6.80;99.90;;;;;;4989363;28;20037;-74
2022/12/30 08:31:25;;;;;;;3.33;1.33;;;6.90;99.90;;;;;;4990027;28;20041;-75
2022/12/30 08:33:52;;;;;;;14.50;2.13;;;7.00;99.90;;;;;;4989780;28;20031;-74
2022/12/30 08:36:22;;;;;;;8.25;1.77;;;7.00;99.90;;;;;;4989004;28;20034;-75
2022/12/30 08:38:51;;;;;;;6.78;1.80;;;7.00;99.90;;;;;;4987750;28;20026;-73
2022/12/30 08:41:27;;;;;;;3.00;1.85;;;7.10;99.90;;;;;;4987529;28;20086;-75
2022/12/30 08:43:56;;;;;;;5.45;2.25;;;7.20;99.90;;;;;;4987279;28;21349;-75
2022/12/30 08:46:22;;;;;;;4.80;2.78;;;7.20;99.90;;;;;;4971891;28;20846;-74
2022/12/30 08:48:48;;;;;;;7.68;2.20;;;7.30;99.90;;;;;;4988672;28;20031;-75
2022/12/30 08:51:14;;;;;;;7.22;1.73;;;7.30;99.90;;;;;;4989495;28;20058;-74
2022/12/30 08:53:40;;;;;;;7.05;1.25;;;7.30;99.90;;;;;;4989158;28;20022;-73
2022/12/30 08:56:29;;;;;;;4.30;1.42;;;7.30;99.90;;;;;;4989528;28;20030;-74
2022/12/30 08:58:56;;;;;;;3.53;1.60;;;7.30;99.90;;;;;;4987317;28;20047;-75
2022/12/30 09:01:25;;;;;;;3.38;1.10;;;7.30;99.90;;;;;;4988750;28;20034;-72
2022/12/30 09:03:52;;;;;;;3.87;1.07;;;7.30;99.90;;;;;;4992468;28;20041;-75
2022/12/30 09:06:20;;;;;;;8.07;2.17;;;7.30;99.90;;;;;;4993606;28;20054;-75
2022/12/30 09:08:46;;;;;;;5.70;1.30;;;7.30;99.90;;;;;;4987543;28;20042;-74
2022/12/30 09:11:24;;;;;;;5.10;1.30;;;7.30;99.90;;;;;;4979823;28;20035;-74
2022/12/30 09:13:51;;;;;;;3.17;1.98;;;7.40;99.90;;;;;;4988107;28;20105;-74
2022/12/30 09:16:21;;;;;;;4.28;2.00;;;7.40;99.90;;;;;;4970133;28;20023;-72
2022/12/30 09:18:48;;;;;;;2.40;2.20;;;7.40;99.90;;;;;;4986713;28;20110;-76
2022/12/30 09:21:14;;;;;;;4.65;2.55;;;7.40;99.90;;;;;;4983806;28;20042;-75
2022/12/30 09:23:40;;;;;;;12.88;2.45;;;7.50;99.90;;;;;;4987651;28;20027;-75
2022/12/30 09:26:08;;;;;;;1.75;1.60;;;7.50;99.90;;;;;;4987866;28;20094;-74
2022/12/30 09:28:35;;;;;;;2.50;1.42;;;7.50;99.90;;;;;;4976958;28;20029;-74
2022/12/30 09:31:01;;;;;;;2.72;1.63;;;7.60;99.90;;;;;;4986975;28;20046;-75
2022/12/30 09:33:27;;;;;;;4.93;1.50;;;7.80;99.90;;;;;;4970580;28;20035;-75
2022/12/30 09:35:52;;;;;;;5.75;1.67;;;7.90;99.90;;;;;;4970314;28;20031;-75
2022/12/30 09:38:18;;;;;;;6.90;1.73;;;7.90;99.90;;;;;;4987250;28;20075;-74
2022/12/30 09:41:01;;;;;;;1.65;1.30;;;8.00;99.90;;;;;;4987180;28;20117;-76
2022/12/30 09:43:54;;;;;;;3.53;1.60;;;8.10;99.90;;;;;;4986717;28;20043;-77
2022/12/30 09:46:39;;;;;;;2.90;1.58;;;8.10;99.90;;;;;;4988155;28;20015;-76
2022/12/30 09:49:32;;;;;;;2.67;1.40;;;8.10;99.90;;;;;;4985193;28;20061;-76
2022/12/30 09:52:11;;;;;;;4.57;1.63;;;8.20;99.90;;;;;;4985628;28;20033;-77
2022/12/30 09:54:40;;;;;;;3.75;1.42;;;8.20;99.90;;;;;;4987095;28;20126;-76
2022/12/30 09:59:57;;;;;;;2.70;2.05;;;8.20;99.90;;;;;;4988090;28;20047;-76
2022/12/30 10:02:28;;;;;;;1.30;1.20;;;8.30;99.90;;;;;;4988597;28;20427;-76
2022/12/30 10:04:56;;;;;;;0.95;0.90;;;8.40;99.90;;;;;;4970638;28;20046;-76
2022/12/30 10:07:37;;;;;;;10.10;1.52;;;8.50;99.90;;;;;;4987353;28;20049;-76
2022/12/30 10:10:14;;;;;;;6.45;1.35;;;8.60;99.90;;;;;;4987807;28;20034;-77
2022/12/30 10:13:00;;;;;;;4.28;1.70;;;8.60;99.90;;;;;;4970561;28;20062;-76
2022/12/30 10:15:29;;;;;;;3.70;1.88;;;8.60;99.90;;;;;;4987780;28;20050;-76
2022/12/30 10:18:26;;;;;;;1.80;1.30;;;8.70;99.90;;;;;;4987409;28;20038;-77
2022/12/30 10:21:30;;;;;;;8.13;3.20;;;8.80;99.90;;;;;;4951424;29;20031;-77
2022/12/30 10:24:28;;;;;;;1.40;1.30;;;8.80;99.90;;;;;;4971313;28;20030;-77
2022/12/30 10:26:57;;;;;;;3.35;1.20;;;8.80;99.90;;;;;;4959477;29;20035;-76
2022/12/30 10:29:36;;;;;;;7.32;1.80;;;8.80;99.90;;;;;;4958727;28;20032;-76
2022/12/30 10:32:24;;;;;;;11.80;2.70;;;8.80;99.90;;;;;;4986107;28;20030;-76
2022/12/30 10:35:10;;;;;;;3.33;1.70;;;8.90;99.90;;;;;;4986874;28;20034;-76
2022/12/30 10:37:36;;;;;;;2.00;1.65;;;8.90;99.90;;;;;;4986605;28;20041;-76
2022/12/30 10:40:13;;;;;;;1.45;0.98;;;8.80;99.90;;;;;;4987649;28;20027;-76
2022/12/30 10:42:58;;;;;;;2.65;2.25;;;8.90;99.90;;;;;;4985517;28;20487;-76
2022/12/30 10:45:49;;;;;;;4.93;2.25;;;8.90;99.90;;;;;;4986845;28;20041;-76
2022/12/30 10:48:20;;;;;;;9.55;2.40;;;8.80;99.90;;;;;;4987681;28;20026;-76
2022/12/30 10:50:48;;;;;;;5.30;1.38;;;8.80;99.90;;;;;;4986395;28;20027;-76
2022/12/30 10:53:20;;;;;;;8.10;2.22;;;8.80;99.90;;;;;;4986815;28;20057;-76
2022/12/30 10:55:54;;;;;;;8.05;1.63;;;8.90;99.90;;;;;;4987559;28;20094;-76
2022/12/30 10:58:47;;;;;;;5.97;2.08;;;8.90;99.90;;;;;;4987433;28;20038;-76
2022/12/30 11:01:35;;;;;;;6.13;1.13;;;8.90;99.90;;;;;;5001627;28;20042;-77
2022/12/30 11:04:02;;;;;;;3.80;1.40;;;8.80;99.90;;;;;;4971724;28;20073;-76
2022/12/30 11:06:36;;;;;;;7.63;1.45;;;8.90;99.90;;;;;;4985088;28;20091;-76
2022/12/30 11:09:11;;;;;;;9.20;2.17;;;8.90;99.90;;;;;;4988564;28;20019;-77
2022/12/30 11:14:44;;;;;;;4.20;2.00;;;8.90;99.90;;;;;;5000303;28;20086;-76
2022/12/30 11:17:16;;;;;;;3.78;2.17;;;8.90;99.90;;;;;;4985024;28;20022;-77
2022/12/30 11:20:20;;;;;;;2.90;2.47;;;8.90;99.90;;;;;;4949895;28;20035;-77
2022/12/30 11:22:47;;;;;;;7.72;3.05;;;9.00;99.90;;;;;;4982177;28;20085;-76
2022/12/30 11:25:58;;;;;;;10.27;1.67;;;9.00;99.90;;;;;;4974860;28;20143;-76
2022/12/30 11:28:33;;;;;;;2.88;1.55;;;9.00;99.90;;;;;;4925859;29;20032;-76
2022/12/30 11:31:04;;;;;;;2.60;2.25;;;9.10;99.90;;;;;;4932372;29;20115;-77
2022/12/30 11:33:32;;;;;;;5.22;2.22;;;9.10;99.90;;;;;;4958600;28;20050;-76
2022/12/30 11:36:11;;;;;;;5.85;1.33;;;9.20;99.90;;;;;;4983256;28;20038;-76
2022/12/30 11:38:40;;;;;;;5.10;2.50;;;9.20;99.90;;;;;;4984829;28;20062;-76
2022/12/30 11:41:18;;;;;;;2.47;2.15;;;9.20;99.90;;;;;;4984477;28;20027;-76
2022/12/30 11:43:58;;;;;;;2.45;1.88;;;9.30;99.90;;;;;;4986082;28;20495;-76
2022/12/30 11:46:44;;;;;;;1.80;1.55;;;9.30;99.90;;;;;;4995769;28;20088;-76
2022/12/30 11:49:26;;;;;;;4.88;2.70;;;9.30;99.90;;;;;;4985205;28;20027;-76
2022/12/30 11:51:56;;;;;;;4.78;1.77;;;9.30;99.90;;;;;;4983320;28;20062;-76
2022/12/30 11:54:25;;;;;;;2.88;1.30;;;9.40;99.90;;;;;;4985939;28;20026;-74
2022/12/30 11:56:55;;;;;;;3.63;1.35;;;9.40;99.90;;;;;;4987035;28;20098;-76
2022/12/30 11:59:44;;;;;;;3.58;1.90;;;9.30;99.90;;;;;;4989590;28;20051;-76
2022/12/30 12:02:40;;;;;;;2.38;1.42;;;9.40;99.90;;;;;;4985119;28;20101;-76
2022/12/30 12:05:39;;;;;;;7.32;2.63;;;9.40;99.90;;;;;;4969615;28;20099;-76
2022/12/30 12:08:26;;;;;;;8.43;1.65;;;9.40;99.90;;;;;;4988457;28;20085;-76
2022/12/30 12:11:15;;;;;;;4.25;1.25;;;9.50;99.90;;;;;;4977123;28;20101;-76
2022/12/30 12:13:57;;;;;;;1.10;1.10;;;9.50;99.90;;;;;;4990342;28;20089;-76
2022/12/30 12:16:44;;;;;;;3.80;1.40;;;9.60;99.90;;;;;;4997331;28;20043;-76
2022/12/30 12:19:25;;;;;;;1.55;1.10;;;9.60;99.90;;;;;;4989070;28;20035;-76
2022/12/30 12:21:55;;;;;;;4.63;2.50;;;9.60;99.90;;;;;;4983143;28;20031;-75
2022/12/30 12:24:26;;;;;;;;;;;9.60;99.90;;;;;;4983358;28;20085;-76
2022/12/30 12:27:16;;;;;;;6.32;1.45;;;9.50;99.90;;;;;;4989278;28;19916;-76
2022/12/30 12:29:43;;;;;;;4.05;1.67;;;9.50;99.90;;;;;;4984757;28;20023;-76
2022/12/30 12:32:15;;;;;;;2.33;2.13;;;9.40;99.90;;;;;;4982779;28;20037;-76
2022/12/30 12:34:59;;;;;;;3.22;1.38;;;9.40;99.90;;;;;;4988639;28;20086;-77
2022/12/30 12:37:28;;;;;;;1.05;1.00;;;9.30;99.90;;;;;;4988311;28;20031;-75
2022/12/30 12:40:12;;;;;;;2.40;1.17;;;9.20;99.90;;;;;;4988936;28;20038;-75
2022/12/30 12:42:57;;;;;;;7.50;1.92;;;9.10;99.90;;;;;;4982403;28;20027;-75
2022/12/30 12:45:53;;;;;;;4.90;1.85;;;9.10;99.90;;;;;;4981388;28;20038;-76
2022/12/30 12:48:33;;;;;;;1.08;0.55;;;9.00;99.90;;;;;;4984925;28;20031;-76
2022/12/30 12:50:59;;;;;;;3.15;1.20;;;8.90;99.90;;;;;;4984940;28;20511;-76
2022/12/30 12:53:51;;;;;;;5.07;1.23;;;8.90;99.90;;;;;;4984547;28;20039;-76
2022/12/30 12:56:32;;;;;;;1.92;1.48;;;8.90;99.90;;;;;;4975905;28;20098;-75
2022/12/30 12:59:23;;;;;;;6.53;1.30;;;8.80;99.90;;;;;;4976263;28;20082;-76
2022/12/30 13:02:11;;;;;;;0.75;0.75;;;8.80;99.90;;;;;;4973363;28;20039;-76
2022/12/30 13:04:44;;;;;;;3.67;1.00;;;8.70;99.90;;;;;;4980856;28;20027;-76
2022/12/30 13:07:58;;;;;;;7.47;3.20;;;8.70;99.90;;;;;;4975549;28;20027;-76
2022/12/30 13:10:37;;;;;;;1.85;1.48;;;8.70;99.90;;;;;;4986485;28;20035;-76
2022/12/30 13:13:20;;;;;;;1.60;1.50;;;8.80;99.90;;;;;;4980001;28;20023;-76
2022/12/30 13:16:26;;;;;;;4.22;1.17;;;8.80;99.90;;;;;;4987288;28;20054;-76
2022/12/30 13:18:55;;;;;;;2.38;1.45;;;8.80;99.90;;;;;;4982484;28;20043;-76
2022/12/30 13:21:24;;;;;;;5.40;1.20;;;8.90;99.90;;;;;;4987642;28;20038;-76
2022/12/30 13:24:04;;;;;;;3.03;1.20;;;8.80;99.90;;;;;;4984830;28;20059;-75
2022/12/30 13:26:32;;;;;;;;;;;8.80;99.90;;;;;;4977898;28;20117;-76
2022/12/30 13:29:00;;;;;;;8.23;1.55;;;8.90;99.90;;;;;;4988086;28;19910;-75
2022/12/30 13:32:04;;;;;;;2.08;1.27;;;8.90;99.90;;;;;;4987069;28;20062;-75
2022/12/30 13:34:48;;;;;;;2.75;1.40;;;8.90;99.90;;;;;;4986265;28;20034;-76
2022/12/30 13:37:50;;;;;;;2.65;2.13;;;8.90;99.90;;;;;;4986654;28;20066;-76
2022/12/30 13:40:21;;;;;;;3.85;2.65;;;8.90;99.90;;;;;;4991970;28;20049;-76
2022/12/30 13:43:03;;;;;;;3.40;1.80;;;8.90;99.90;;;;;;4988084;28;20078;-75
2022/12/30 13:45:36;;;;;;;3.88;1.15;;;8.80;99.90;;;;;;4986976;28;20110;-75
2022/12/30 13:48:18;;;;;;;1.13;1.05;;;8.80;99.90;;;;;;4979619;28;20058;-76
2022/12/30 13:50:44;;;;;;;1.80;1.10;;;8.70;99.90;;;;;;4981847;28;20023;-75
2022/12/30 13:53:25;;;;;;;1.50;1.20;;;8.70;99.90;;;;;;4986681;28;20030;-76
2022/12/30 13:55:51;;;;;;;1.98;1.23;;;8.70;99.90;;;;;;4974811;28;20035;-75
2022/12/30 13:58:36;;;;;;;1.55;1.45;;;8.60;99.90;;;;;;4985646;28;20023;-76
2022/12/30 14:01:20;;;;;;;1.98;1.08;;;8.60;99.90;;;;;;4986148;28;20054;-75
2022/12/30 14:03:51;;;;;;;2.40;0.85;;;8.60;99.90;;;;;;4982715;28;20023;-75
2022/12/30 14:06:41;;;;;;;1.23;1.17;;;8.60;99.90;;;;;;4976527;28;20491;-76
2022/12/30 14:09:18;;;;;;;2.05;1.95;;;8.60;99.90;;;;;;4986075;28;20058;-76
2022/12/30 14:12:27;;;;;;;1.75;1.13;;;8.60;99.90;;;;;;4987649;28;20046;-75
2022/12/30 14:14:53;;;;;;;0.80;0.75;;;8.60;99.90;;;;;;4954661;28;20093;-75
2022/12/30 14:17:28;;;;;;;22.98;13.18;;;8.60;99.90;;;;;;4983366;28;20022;-77